createdAt,value
2018-09-07T00:00:20.791Z,16.50
2018-09-07T00:02:48.361Z,16.93
2018-09-07T00:05:15.916Z,16.50
2018-09-07T00:07:43.493Z,17.47
2018-09-07T00:10:11.092Z,17.77
2018-09-07T00:12:38.793Z,18.40
2018-09-07T00:15:06.430Z,16.60
2018-09-07T00:17:33.980Z,18.90
2018-09-07T00:20:01.540Z,15.73
2018-09-07T00:22:29.142Z,17.60
2018-09-07T00:24:56.771Z,17.40
2018-09-07T00:27:24.415Z,18.17
2018-09-07T00:29:51.975Z,17.23
2018-09-07T00:32:19.607Z,17.13
2018-09-07T00:34:47.227Z,17.37
2018-09-07T00:37:14.788Z,17.37
2018-09-07T00:39:42.356Z,17.37
2018-09-07T00:42:09.939Z,19.00
2018-09-07T00:44:37.532Z,17.87
2018-09-07T00:47:05.149Z,18.63
2018-09-07T00:49:32.716Z,18.70
2018-09-07T00:52:00.303Z,19.03
2018-09-07T00:54:27.885Z,20.33
2018-09-07T00:56:55.492Z,17.83
2018-09-07T00:59:23.080Z,18.80
2018-09-07T01:01:50.663Z,18.90
2018-09-07T01:04:18.296Z,17.80
2018-09-07T01:06:45.903Z,19.37
2018-09-07T01:09:13.455Z,19.50
2018-09-07T01:11:41.023Z,19.00
2018-09-07T01:14:08.672Z,17.57
2018-09-07T01:16:36.238Z,17.20
2018-09-07T01:19:03.901Z,17.70
2018-09-07T01:21:31.468Z,18.73
2018-09-07T01:23:59.073Z,17.97
2018-09-07T01:26:26.673Z,18.80
2018-09-07T01:28:54.247Z,19.47
2018-09-07T01:31:21.813Z,19.20
2018-09-07T01:33:49.397Z,18.50
2018-09-07T01:36:16.988Z,19.10
2018-09-07T01:38:44.602Z,19.07
2018-09-07T01:41:12.176Z,18.60
2018-09-07T01:43:39.758Z,16.50
2018-09-07T01:46:07.330Z,16.43
2018-09-07T01:48:34.939Z,15.27
2018-09-07T01:51:02.555Z,15.50
2018-09-07T01:53:30.136Z,16.40
2018-09-07T01:55:57.742Z,16.30
2018-09-07T01:58:25.971Z,17.10
2018-09-07T02:00:53.618Z,17.70
2018-09-07T02:03:26.521Z,18.13
2018-09-07T02:05:54.476Z,16.87
2018-09-07T02:08:22.991Z,17.80
2018-09-07T02:10:51.218Z,17.43
2018-09-07T02:13:18.843Z,18.07
2018-09-07T02:15:46.438Z,18.73
2018-09-07T02:18:14.050Z,18.80
2018-09-07T02:20:41.712Z,17.73
2018-09-07T02:23:09.287Z,18.30
2018-09-07T02:25:36.865Z,17.90
2018-09-07T02:28:04.507Z,18.60
2018-09-07T02:30:32.133Z,19.70
2018-09-07T02:32:59.733Z,18.23
2018-09-07T02:35:27.342Z,18.60
2018-09-07T02:37:54.920Z,16.57
2018-09-07T02:40:22.546Z,16.20
2018-09-07T02:42:50.133Z,18.50
2018-09-07T02:45:17.797Z,16.37
2018-09-07T02:47:45.394Z,17.90
2018-09-07T02:50:12.975Z,16.87
2018-09-07T02:52:40.555Z,18.37
2018-09-07T02:55:08.156Z,18.73
2018-09-07T02:57:35.787Z,18.70
2018-09-07T03:00:03.435Z,18.93
2018-09-07T03:02:31.010Z,17.70
2018-09-07T03:04:58.621Z,18.83
2018-09-07T03:07:26.272Z,18.87
2018-09-07T03:09:53.865Z,18.93
2018-09-07T03:12:21.445Z,17.20
2018-09-07T03:14:49.164Z,18.17
2018-09-07T03:17:16.779Z,16.77
2018-09-07T03:19:44.338Z,18.47
2018-09-07T03:22:11.908Z,17.17
2018-09-07T03:24:39.491Z,19.30
2018-09-07T03:27:07.127Z,19.13
2018-09-07T03:29:34.689Z,19.70
2018-09-07T03:32:02.381Z,17.90
2018-09-07T03:34:30.272Z,17.63
2018-09-07T03:36:57.837Z,17.63
2018-09-07T03:39:25.421Z,17.93
2018-09-07T03:41:52.993Z,19.77
2018-09-07T03:44:20.562Z,19.30
2018-09-07T03:46:48.165Z,18.10
2018-09-07T03:49:15.746Z,18.50
2018-09-07T03:51:43.312Z,20.23
2018-09-07T03:54:10.914Z,19.07
2018-09-07T03:56:38.520Z,20.57
2018-09-07T03:59:06.130Z,18.90
2018-09-07T04:01:33.685Z,20.67
2018-09-07T04:04:01.252Z,19.67
2018-09-07T04:06:28.852Z,20.03
2018-09-07T04:08:56.513Z,21.20
2018-09-07T04:11:24.130Z,20.17
2018-09-07T04:13:51.704Z,20.70
2018-09-07T04:16:19.320Z,21.20
2018-09-07T04:18:46.912Z,20.43
2018-09-07T04:21:14.489Z,19.10
2018-09-07T04:23:42.106Z,20.67
2018-09-07T04:26:10.629Z,19.43
2018-09-07T04:28:38.288Z,20.40
2018-09-07T04:31:05.955Z,19.23
2018-09-07T04:33:34.537Z,20.93
2018-09-07T04:36:02.136Z,21.50
2018-09-07T04:38:29.963Z,19.77
2018-09-07T04:40:57.555Z,20.73
2018-09-07T04:43:25.186Z,20.03
2018-09-07T04:45:52.803Z,21.77
2018-09-07T04:48:20.721Z,20.93
2018-09-07T04:50:48.392Z,21.20
2018-09-07T04:53:16.197Z,20.33
2018-09-07T04:55:43.767Z,21.67
2018-09-07T04:58:11.369Z,20.77
2018-09-07T05:00:38.960Z,20.03
2018-09-07T05:03:06.569Z,22.97
2018-09-07T05:05:34.140Z,20.70
2018-09-07T05:08:01.711Z,21.00
2018-09-07T05:10:29.301Z,21.00
2018-09-07T05:12:56.890Z,22.37
2018-09-07T05:15:24.453Z,21.67
2018-09-07T05:17:52.054Z,21.77
2018-09-07T05:20:19.668Z,22.23
2018-09-07T05:22:47.233Z,22.10
2018-09-07T05:25:14.824Z,23.03
2018-09-07T05:27:42.450Z,21.57
2018-09-07T05:30:10.042Z,22.00
2018-09-07T05:32:37.637Z,20.83
2018-09-07T05:35:05.211Z,23.37
2018-09-07T05:37:32.800Z,23.90
2018-09-07T05:40:00.446Z,22.50
2018-09-07T05:42:28.065Z,23.73
2018-09-07T05:44:55.621Z,23.60
2018-09-07T05:47:23.234Z,24.57
2018-09-07T05:49:50.915Z,24.67
2018-09-07T05:52:18.454Z,22.80
2018-09-07T05:54:46.032Z,25.17
2018-09-07T05:57:13.616Z,23.40
2018-09-07T05:59:41.206Z,24.07
2018-09-07T06:02:08.809Z,22.93
2018-09-07T06:04:36.395Z,23.93
2018-09-07T06:07:03.991Z,21.57
2018-09-07T06:09:31.566Z,21.90
2018-09-07T06:11:59.131Z,22.23
2018-09-07T06:14:26.745Z,24.40
2018-09-07T06:16:54.311Z,22.00
2018-09-07T06:19:21.899Z,24.17
2018-09-07T06:21:49.491Z,23.20
2018-09-07T06:24:17.079Z,24.13
2018-09-07T06:26:44.694Z,23.40
2018-09-07T06:29:12.245Z,23.97
2018-09-07T06:31:39.809Z,22.27
2018-09-07T06:34:07.392Z,20.90
2018-09-07T06:36:35.053Z,22.17
2018-09-07T06:39:02.753Z,20.40
2018-09-07T06:41:30.320Z,20.63
2018-09-07T06:43:57.903Z,22.30
2018-09-07T06:46:25.504Z,19.63
2018-09-07T06:48:53.135Z,19.40
2018-09-07T06:51:20.709Z,20.90
2018-09-07T06:53:48.312Z,21.53
2018-09-07T06:56:16.169Z,20.30
2018-09-07T06:58:43.782Z,19.10
2018-09-07T07:01:11.362Z,20.23
2018-09-07T07:03:39.045Z,21.67
2018-09-07T07:06:06.661Z,20.60
2018-09-07T07:08:34.750Z,19.97
2018-09-07T07:11:02.288Z,20.07
2018-09-07T07:13:29.941Z,19.97
2018-09-07T07:15:57.542Z,20.63
2018-09-07T07:18:25.170Z,21.10
2018-09-07T07:20:52.766Z,19.47
2018-09-07T07:23:20.360Z,17.90
2018-09-07T07:25:47.924Z,19.83
2018-09-07T07:28:15.546Z,18.73
2018-09-07T07:30:43.184Z,17.73
2018-09-07T07:33:10.796Z,16.83
2018-09-07T07:35:38.405Z,17.17
2018-09-07T07:38:06.017Z,17.40
2018-09-07T07:40:33.609Z,15.53
2018-09-07T07:43:01.245Z,17.30
2018-09-07T07:45:28.832Z,18.07
2018-09-07T07:47:56.464Z,17.60
2018-09-07T07:50:24.047Z,18.87
2018-09-07T07:52:51.645Z,17.47
2018-09-07T07:55:19.245Z,15.80
2018-09-07T07:57:46.834Z,18.80
2018-09-07T08:00:14.468Z,18.03
2018-09-07T08:02:42.087Z,18.10
2018-09-07T08:05:09.721Z,16.90
2018-09-07T08:07:37.322Z,17.60
2018-09-07T08:10:04.964Z,18.07
2018-09-07T08:12:32.590Z,17.77
2018-09-07T08:15:00.220Z,15.70
2018-09-07T08:17:27.848Z,17.07
2018-09-07T08:19:55.447Z,16.00
2018-09-07T08:22:23.053Z,17.33
2018-09-07T08:24:50.638Z,20.17
2018-09-07T08:27:18.259Z,16.43
2018-09-07T08:29:45.868Z,17.63
2018-09-07T08:32:13.518Z,15.77
2018-09-07T08:34:41.161Z,15.97
2018-09-07T08:37:08.780Z,14.90
2018-09-07T08:39:36.381Z,14.77
2018-09-07T08:42:04.020Z,14.30
2018-09-07T08:44:31.699Z,13.33
2018-09-07T08:46:59.285Z,13.30
2018-09-07T08:49:26.945Z,12.40
2018-09-07T08:51:54.667Z,12.80
2018-09-07T08:54:22.262Z,12.73
2018-09-07T08:56:49.861Z,13.50
2018-09-07T08:59:17.636Z,14.00
2018-09-07T09:01:45.265Z,13.27
2018-09-07T09:04:12.872Z,12.87
2018-09-07T09:06:40.497Z,12.73
2018-09-07T09:09:08.473Z,11.80
2018-09-07T09:11:36.382Z,12.57
2018-09-07T09:14:03.997Z,12.50
2018-09-07T09:16:31.838Z,13.03
2018-09-07T09:18:59.461Z,12.70
2018-09-07T09:21:27.058Z,12.97
2018-09-07T09:23:54.652Z,11.60
2018-09-07T09:26:22.241Z,12.00
2018-09-07T09:28:49.834Z,10.60
2018-09-07T09:31:17.705Z,11.60
2018-09-07T09:33:45.292Z,12.23
2018-09-07T09:36:12.902Z,12.00
2018-09-07T09:38:40.509Z,13.10
2018-09-07T09:41:08.151Z,11.40
2018-09-07T09:43:35.758Z,11.33
2018-09-07T09:46:03.426Z,11.13
2018-09-07T09:48:31.059Z,12.10
2018-09-07T09:50:58.664Z,12.20
2018-09-07T09:53:26.286Z,10.80
2018-09-07T09:55:53.893Z,11.37
2018-09-07T09:58:21.598Z,11.97
2018-09-07T10:00:54.512Z,12.23
2018-09-07T10:03:27.500Z,11.87
2018-09-07T10:05:55.071Z,11.93
2018-09-07T10:08:22.724Z,11.47
2018-09-07T10:10:50.309Z,11.40
2018-09-07T10:13:17.885Z,11.17
2018-09-07T10:15:45.593Z,11.00
2018-09-07T10:18:13.184Z,11.87
2018-09-07T10:20:40.807Z,11.23
2018-09-07T10:23:08.389Z,11.00
2018-09-07T10:25:35.977Z,11.03
2018-09-07T10:28:03.609Z,11.03
2018-09-07T10:30:31.253Z,11.23
2018-09-07T10:32:58.860Z,12.80
2018-09-07T10:35:26.442Z,12.07
2018-09-07T10:37:54.080Z,12.93
2018-09-07T10:40:21.685Z,13.00
2018-09-07T10:42:49.261Z,13.10
2018-09-07T10:45:16.862Z,12.87
2018-09-07T10:47:44.468Z,13.03
2018-09-07T10:50:12.114Z,13.20
2018-09-07T10:52:39.756Z,13.13
2018-09-07T10:55:07.367Z,12.60
2018-09-07T10:57:35.000Z,12.67
2018-09-07T11:00:03.623Z,14.20
2018-09-07T11:02:31.287Z,13.40
2018-09-07T11:04:58.928Z,12.47
2018-09-07T11:07:26.519Z,13.60
2018-09-07T11:09:54.108Z,13.50
2018-09-07T11:12:21.700Z,13.30
2018-09-07T11:14:49.308Z,13.93
2018-09-07T11:17:16.958Z,14.30
2018-09-07T11:19:44.524Z,14.97
2018-09-07T11:22:12.176Z,13.70
2018-09-07T11:24:39.757Z,14.30
2018-09-07T11:27:07.391Z,14.33
2018-09-07T11:29:34.975Z,12.40
2018-09-07T11:32:02.577Z,13.20
2018-09-07T11:34:30.181Z,13.73
2018-09-07T11:36:57.849Z,12.90
2018-09-07T11:39:25.409Z,13.60
2018-09-07T11:41:53.086Z,14.10
2018-09-07T11:44:20.781Z,14.00
2018-09-07T11:46:48.482Z,13.90
2018-09-07T11:49:16.114Z,14.00
2018-09-07T11:51:43.694Z,13.70
2018-09-07T11:54:11.256Z,14.97
2018-09-07T11:56:38.873Z,14.87
2018-09-07T11:59:06.461Z,13.53
2018-09-07T12:01:34.141Z,13.70
2018-09-07T12:04:01.761Z,13.87
2018-09-07T12:06:29.361Z,14.33
2018-09-07T12:08:56.976Z,14.67
2018-09-07T12:11:24.613Z,12.83
2018-09-07T12:13:52.255Z,13.83
2018-09-07T12:16:19.893Z,14.30
2018-09-07T12:18:47.500Z,12.67
2018-09-07T12:21:15.173Z,13.07
2018-09-07T12:23:42.858Z,13.70
2018-09-07T12:26:10.484Z,12.50
2018-09-07T12:28:38.157Z,13.37
2018-09-07T12:31:06.146Z,13.87
2018-09-07T12:33:33.828Z,12.77
2018-09-07T12:36:01.568Z,12.30
2018-09-07T12:38:29.237Z,13.17
2018-09-07T12:40:56.905Z,13.37
2018-09-07T12:43:24.568Z,12.50
2018-09-07T12:45:52.257Z,13.77
2018-09-07T12:48:19.941Z,13.97
2018-09-07T12:50:47.624Z,13.40
2018-09-07T12:53:15.251Z,14.00
2018-09-07T12:55:43.778Z,13.20
2018-09-07T12:58:11.427Z,12.53
2018-09-07T13:00:39.102Z,12.83
2018-09-07T13:03:06.762Z,13.10
2018-09-07T13:05:40.433Z,12.53
2018-09-07T13:08:08.448Z,12.40
2018-09-07T13:10:36.096Z,13.50
2018-09-07T13:13:03.756Z,13.67
2018-09-07T13:15:31.459Z,12.67
2018-09-07T13:17:59.077Z,12.60
2018-09-07T13:20:27.013Z,13.90
2018-09-07T13:22:54.658Z,13.43
2018-09-07T13:25:22.334Z,12.70
2018-09-07T13:27:49.988Z,13.27
2018-09-07T13:30:17.643Z,12.90
2018-09-07T13:32:45.265Z,12.47
2018-09-07T13:35:12.973Z,13.27
2018-09-07T13:37:40.577Z,12.80
2018-09-07T13:40:08.246Z,13.23
2018-09-07T13:42:35.890Z,11.90
2018-09-07T13:45:03.584Z,11.30
2018-09-07T13:47:31.231Z,12.80
2018-09-07T13:49:58.904Z,11.90
2018-09-07T13:52:26.547Z,11.33
2018-09-07T13:54:54.254Z,12.33
2018-09-07T13:57:21.878Z,11.80
2018-09-07T13:59:49.547Z,11.20
2018-09-07T14:02:17.155Z,12.60
2018-09-07T14:04:44.822Z,12.00
2018-09-07T14:07:12.499Z,13.20
2018-09-07T14:09:40.149Z,13.00
2018-09-07T14:12:07.796Z,13.07
2018-09-07T14:14:35.423Z,14.10
2018-09-07T14:17:03.090Z,12.50
2018-09-07T14:19:30.786Z,14.73
2018-09-07T14:21:58.402Z,14.00
2018-09-07T14:24:26.009Z,14.50
2018-09-07T14:26:53.609Z,14.43
2018-09-07T14:29:21.256Z,14.40
2018-09-07T14:31:48.902Z,13.03
2018-09-07T14:34:16.521Z,12.77
2018-09-07T14:36:44.152Z,12.70
2018-09-07T14:39:11.788Z,12.80
2018-09-07T14:41:39.438Z,12.73
2018-09-07T14:44:07.063Z,13.30
2018-09-07T14:46:34.741Z,14.60
2018-09-07T14:49:02.485Z,16.23
2018-09-07T14:51:30.221Z,15.33
2018-09-07T14:53:57.899Z,15.73
2018-09-07T14:56:25.561Z,15.93
2018-09-07T14:58:53.263Z,15.07
2018-09-07T15:01:20.889Z,16.13
2018-09-07T15:03:48.531Z,17.63
2018-09-07T15:06:16.153Z,16.63
2018-09-07T15:08:43.788Z,15.20
2018-09-07T15:11:11.418Z,13.40
2018-09-07T15:13:39.048Z,15.17
2018-09-07T15:16:06.774Z,13.70
2018-09-07T15:18:34.936Z,13.07
2018-09-07T15:21:02.613Z,12.00
2018-09-07T15:23:30.292Z,14.00
2018-09-07T15:25:58.415Z,13.07
2018-09-07T15:28:26.065Z,12.87
2018-09-07T15:30:53.721Z,14.57
2018-09-07T15:33:21.406Z,13.30
2018-09-07T15:35:49.097Z,12.83
2018-09-07T15:38:16.713Z,12.67
2018-09-07T15:40:44.331Z,12.87
2018-09-07T15:43:11.993Z,12.40
2018-09-07T15:45:39.644Z,11.30
2018-09-07T15:48:07.267Z,10.83
2018-09-07T15:50:41.735Z,10.37
2018-09-07T15:53:09.464Z,10.80
2018-09-07T15:55:37.158Z,11.80
2018-09-07T15:58:04.795Z,12.17
2018-09-07T16:00:32.451Z,11.03
2018-09-07T16:03:00.118Z,9.50
2018-09-07T16:05:27.757Z,10.37
2018-09-07T16:07:55.364Z,9.37
2018-09-07T16:10:22.979Z,9.77
2018-09-07T16:12:50.604Z,9.30
2018-09-07T16:15:18.410Z,8.17
2018-09-07T16:17:46.063Z,8.13
2018-09-07T16:20:13.718Z,8.27
2018-09-07T16:22:41.394Z,8.83
2018-09-07T16:25:09.047Z,9.70
2018-09-07T16:27:36.664Z,10.70
2018-09-07T16:30:04.436Z,9.97
2018-09-07T16:32:32.077Z,9.60
2018-09-07T16:34:59.812Z,9.57
2018-09-07T16:37:27.424Z,10.20
2018-09-07T16:39:55.136Z,10.63
2018-09-07T16:42:22.799Z,10.90
2018-09-07T16:44:50.436Z,10.80
2018-09-07T16:47:18.144Z,9.30
2018-09-07T16:49:45.784Z,10.70
2018-09-07T16:52:13.422Z,9.60
2018-09-07T16:54:41.102Z,10.10
2018-09-07T16:57:08.743Z,9.70
2018-09-07T16:59:36.446Z,10.13
2018-09-07T17:02:04.151Z,10.47
2018-09-07T17:04:31.782Z,9.93
2018-09-07T17:06:59.474Z,10.30
2018-09-07T17:09:27.119Z,9.13
2018-09-07T17:11:54.769Z,9.30
2018-09-07T17:14:22.430Z,9.17
2018-09-07T17:16:50.104Z,12.93
2018-09-07T17:19:17.809Z,10.70
2018-09-07T17:21:45.623Z,11.90
2018-09-07T17:24:13.289Z,10.40
2018-09-07T17:26:40.906Z,10.00
2018-09-07T17:29:08.642Z,11.53
2018-09-07T17:31:36.254Z,11.50
2018-09-07T17:34:03.882Z,10.13
2018-09-07T17:36:31.518Z,10.83
2018-09-07T17:38:59.168Z,10.93
2018-09-07T17:41:26.795Z,10.37
2018-09-07T17:43:54.415Z,10.87
2018-09-07T17:46:22.056Z,10.80
2018-09-07T17:48:49.681Z,11.23
2018-09-07T17:51:17.269Z,11.90
2018-09-07T17:53:44.921Z,11.40
2018-09-07T17:56:12.540Z,10.87
2018-09-07T17:58:40.231Z,11.17
2018-09-07T18:01:07.929Z,10.70
2018-09-07T18:03:35.537Z,10.73
2018-09-07T18:06:04.163Z,10.13
2018-09-07T18:08:31.841Z,10.00
2018-09-07T18:10:59.696Z,11.83
2018-09-07T18:13:27.334Z,11.20
2018-09-07T18:15:55.000Z,11.10
2018-09-07T18:18:22.714Z,10.40
2018-09-07T18:20:50.336Z,11.60
2018-09-07T18:23:17.961Z,10.20
2018-09-07T18:25:45.635Z,11.63
2018-09-07T18:28:13.270Z,12.80
2018-09-07T18:30:40.909Z,12.47
2018-09-07T18:33:08.578Z,10.93
2018-09-07T18:35:36.655Z,12.40
2018-09-07T18:38:03.965Z,11.90
2018-09-07T18:40:31.630Z,11.30
2018-09-07T18:42:59.277Z,11.20
2018-09-07T18:45:26.907Z,11.73
2018-09-07T18:47:54.548Z,12.23
2018-09-07T18:50:22.222Z,12.40
2018-09-07T18:52:49.918Z,12.23
2018-09-07T18:55:17.569Z,10.87
2018-09-07T18:57:45.245Z,10.47
2018-09-07T19:00:12.963Z,10.73
2018-09-07T19:02:40.648Z,10.63
2018-09-07T19:05:08.339Z,11.13
2018-09-07T19:07:35.997Z,11.47
2018-09-07T19:10:03.804Z,10.97
2018-09-07T19:12:31.504Z,10.00
2018-09-07T19:14:59.177Z,10.97
2018-09-07T19:17:26.830Z,10.53
2018-09-07T19:19:54.489Z,9.97
2018-09-07T19:22:22.203Z,11.13
2018-09-07T19:24:49.866Z,11.00
2018-09-07T19:27:17.472Z,11.07
2018-09-07T19:29:45.148Z,10.93
2018-09-07T19:32:12.799Z,10.40
2018-09-07T19:34:40.451Z,11.80
2018-09-07T19:37:08.141Z,10.60
2018-09-07T19:39:35.797Z,10.57
2018-09-07T19:42:03.507Z,10.67
2018-09-07T19:44:31.244Z,11.10
2018-09-07T19:46:58.777Z,10.60
2018-09-07T19:49:26.414Z,11.87
2018-09-07T19:51:54.062Z,12.17
2018-09-07T19:54:21.710Z,13.30
2018-09-07T19:56:49.479Z,10.97
2018-09-07T19:59:17.154Z,11.67
2018-09-07T20:01:44.800Z,11.47
2018-09-07T20:04:12.502Z,13.27
2018-09-07T20:06:40.167Z,11.93
2018-09-07T20:09:07.851Z,13.33
2018-09-07T20:11:36.044Z,13.47
2018-09-07T20:14:03.842Z,13.20
2018-09-07T20:16:31.519Z,14.40
2018-09-07T20:18:59.220Z,14.50
2018-09-07T20:21:26.874Z,15.90
2018-09-07T20:23:54.573Z,14.37
2018-09-07T20:26:22.246Z,14.90
2018-09-07T20:28:50.048Z,14.73
2018-09-07T20:31:17.704Z,14.57
2018-09-07T20:33:45.321Z,13.90
2018-09-07T20:36:12.985Z,14.67
2018-09-07T20:38:40.621Z,14.80
2018-09-07T20:41:08.250Z,13.73
2018-09-07T20:43:35.930Z,14.20
2018-09-07T20:46:03.571Z,13.60
2018-09-07T20:48:31.207Z,13.30
2018-09-07T20:50:58.875Z,13.60
2018-09-07T20:53:26.566Z,13.30
2018-09-07T20:55:54.186Z,13.00
2018-09-07T20:58:21.826Z,13.03
2018-09-07T21:00:49.534Z,12.60
2018-09-07T21:03:18.088Z,11.87
2018-09-07T21:05:46.140Z,12.30
2018-09-07T21:08:13.826Z,13.27
2018-09-07T21:10:42.483Z,14.10
2018-09-07T21:13:10.121Z,14.07
2018-09-07T21:15:37.878Z,13.90
2018-09-07T21:18:05.576Z,12.90
2018-09-07T21:20:33.214Z,13.23
2018-09-07T21:23:00.844Z,13.40
2018-09-07T21:25:28.554Z,13.10
2018-09-07T21:27:56.224Z,13.40
2018-09-07T21:30:23.861Z,14.60
2018-09-07T21:32:51.510Z,13.90
2018-09-07T21:35:19.170Z,13.80
2018-09-07T21:37:46.858Z,13.80
2018-09-07T21:40:14.531Z,15.20
2018-09-07T21:42:42.510Z,14.33
2018-09-07T21:45:10.181Z,14.97
2018-09-07T21:47:37.793Z,15.23
2018-09-07T21:50:05.472Z,14.53
2018-09-07T21:52:33.232Z,14.30
2018-09-07T21:55:00.894Z,15.17
2018-09-07T21:57:35.962Z,15.63
2018-09-07T22:00:03.744Z,14.50
2018-09-07T22:02:31.399Z,13.33
2018-09-07T22:04:59.692Z,13.97
2018-09-07T22:07:32.584Z,14.00
2018-09-07T22:10:00.249Z,14.07
2018-09-07T22:12:27.868Z,14.53
2018-09-07T22:14:55.526Z,14.20
2018-09-07T22:17:23.150Z,13.87
2018-09-07T22:19:50.787Z,13.07
2018-09-07T22:22:18.449Z,12.57
2018-09-07T22:24:46.363Z,12.60
2018-09-07T22:27:14.008Z,12.63
2018-09-07T22:29:42.048Z,12.30
2018-09-07T22:32:10.129Z,12.53
2018-09-07T22:34:37.799Z,12.40
2018-09-07T22:37:05.436Z,13.00
2018-09-07T22:39:33.073Z,12.33
2018-09-07T22:42:00.704Z,13.10
2018-09-07T22:44:28.364Z,13.03
2018-09-07T22:46:56.018Z,14.47
2018-09-07T22:49:23.678Z,13.33
2018-09-07T22:51:51.390Z,13.40
2018-09-07T22:54:18.957Z,13.87
2018-09-07T22:56:46.604Z,12.27
2018-09-07T22:59:14.216Z,11.53
2018-09-07T23:01:41.860Z,11.67
2018-09-07T23:04:09.468Z,12.57
2018-09-07T23:07:12.135Z,12.60
2018-09-07T23:09:39.772Z,12.57
2018-09-07T23:12:07.403Z,12.83
2018-09-07T23:14:35.044Z,14.33
2018-09-07T23:17:02.665Z,13.70
2018-09-07T23:19:30.571Z,13.83
2018-09-07T23:21:58.675Z,13.20
2018-09-07T23:24:26.708Z,13.87
2018-09-07T23:26:54.365Z,13.33
2018-09-07T23:29:22.027Z,12.13
2018-09-07T23:31:49.729Z,11.30
2018-09-07T23:34:17.344Z,12.50
2018-09-07T23:36:45.034Z,13.20
2018-09-07T23:39:16.406Z,12.87
2018-09-07T23:41:44.030Z,11.90
2018-09-07T23:44:11.703Z,12.67
2018-09-07T23:46:39.363Z,13.40
2018-09-07T23:49:07.020Z,12.37
2018-09-07T23:51:34.649Z,11.80
2018-09-07T23:54:02.255Z,12.80
2018-09-07T23:56:29.940Z,11.97
2018-09-07T23:58:57.601Z,11.57
